createdAt,value
2023-03-23T15:59:40.090Z,101055.47
2023-03-23T16:02:09.831Z,101061.06
2023-03-23T16:04:36.977Z,101063.66
2023-03-23T16:07:04.942Z,101059.25
2023-03-23T16:09:32.021Z,101061.22
2023-03-23T16:11:59.087Z,101054.72
2023-03-23T16:14:26.327Z,101045.00
2023-03-23T16:16:53.663Z,101039.88
2023-03-23T16:19:24.385Z,101045.53
2023-03-23T16:21:51.738Z,101041.78
2023-03-23T16:24:22.835Z,101047.75
2023-03-23T16:26:51.069Z,101044.69
2023-03-23T16:29:39.902Z,101058.28
2023-03-23T16:32:06.722Z,101051.84
2023-03-23T16:34:35.578Z,101053.50
2023-03-23T16:37:02.805Z,101057.47
2023-03-23T16:39:30.178Z,101057.22
2023-03-23T16:41:57.317Z,101065.91
2023-03-23T16:44:24.413Z,101054.00
2023-03-23T16:46:51.509Z,101065.38
2023-03-23T16:49:18.584Z,101057.63
2023-03-23T16:51:46.603Z,101058.47
2023-03-23T16:54:13.784Z,101074.50
2023-03-23T16:56:40.956Z,101072.44
2023-03-23T16:59:08.263Z,101075.16
2023-03-23T17:01:35.508Z,101079.16
2023-03-23T17:04:02.674Z,101076.75
2023-03-23T17:06:29.797Z,101078.72
2023-03-23T17:08:56.958Z,101081.50
2023-03-23T17:11:24.123Z,101082.97
2023-03-23T17:13:51.285Z,101085.47
2023-03-23T17:16:18.453Z,101079.25
2023-03-23T17:18:45.610Z,101095.34
2023-03-23T17:21:12.709Z,101089.66
2023-03-23T17:23:39.851Z,101098.53
2023-03-23T17:26:07.111Z,101097.66
2023-03-23T17:28:34.339Z,101101.06
2023-03-23T17:31:01.515Z,101094.03
2023-03-23T17:33:28.655Z,101095.94
2023-03-23T17:35:56.050Z,101095.09
2023-03-23T17:38:23.152Z,101099.16
2023-03-23T17:40:57.885Z,101105.50
2023-03-23T17:43:25.088Z,101114.25
2023-03-23T17:45:52.202Z,101110.22
2023-03-23T17:48:19.299Z,101109.13
2023-03-23T17:50:48.344Z,101111.66
2023-03-23T17:53:15.816Z,101113.00
2023-03-23T17:55:43.534Z,101117.25
2023-03-23T17:58:11.982Z,101121.84
2023-03-23T18:00:39.244Z,101121.97
2023-03-23T18:03:06.437Z,101121.09
2023-03-23T18:05:34.594Z,101121.53
2023-03-23T18:08:01.686Z,101122.84
2023-03-23T18:10:28.789Z,101127.91
2023-03-23T18:12:56.186Z,101130.06
2023-03-23T18:15:28.430Z,101128.81
2023-03-23T18:18:10.850Z,101132.38
2023-03-23T18:20:38.123Z,101141.06
2023-03-23T18:23:06.844Z,101141.50
2023-03-23T18:25:34.142Z,101140.50
2023-03-23T18:28:05.285Z,101143.59
2023-03-23T18:30:34.893Z,101149.50
2023-03-23T18:33:02.063Z,101156.44
2023-03-23T18:35:29.296Z,101152.50
2023-03-23T18:37:56.666Z,101157.09
2023-03-23T18:40:23.823Z,101166.50
2023-03-23T18:42:51.041Z,101161.69
2023-03-23T18:45:18.126Z,101151.50
2023-03-23T18:47:45.234Z,101166.72
2023-03-23T18:50:12.583Z,101160.94
2023-03-23T18:52:40.233Z,101160.53
2023-03-23T18:55:07.988Z,101167.16
2023-03-23T18:57:35.411Z,101160.22
2023-03-23T19:00:04.572Z,101171.16
2023-03-23T19:02:31.896Z,101166.00
2023-03-23T19:04:59.060Z,101172.09
2023-03-23T19:07:26.124Z,101174.94
2023-03-23T19:09:53.266Z,101173.34
2023-03-23T19:12:21.152Z,101178.34
2023-03-23T19:14:48.262Z,101178.75
2023-03-23T19:17:16.028Z,101172.38
2023-03-23T19:19:43.777Z,101176.84
2023-03-23T19:22:12.130Z,101183.97
2023-03-23T19:24:39.248Z,101183.63
2023-03-23T19:27:06.392Z,101184.03
2023-03-23T19:32:02.810Z,101195.38
2023-03-23T19:34:30.975Z,101189.41
2023-03-23T19:37:05.562Z,101187.06
2023-03-23T19:39:34.087Z,101187.91
2023-03-23T19:42:01.565Z,101198.31
2023-03-23T19:44:29.105Z,101198.91
2023-03-23T19:46:56.580Z,101197.03
2023-03-23T19:49:25.051Z,101207.13
2023-03-23T19:52:08.905Z,101196.78
2023-03-23T19:54:39.050Z,101197.81
2023-03-23T19:57:07.853Z,101194.50
2023-03-23T19:59:35.520Z,101203.75
2023-03-23T20:02:03.591Z,101203.34
2023-03-23T20:04:30.990Z,101204.69
2023-03-23T20:06:58.968Z,101206.63
2023-03-23T20:09:26.216Z,101202.72
2023-03-23T20:11:53.697Z,101212.22
2023-03-23T20:14:20.874Z,101213.53
2023-03-23T20:16:48.176Z,101216.56
2023-03-23T20:19:15.419Z,101215.78
2023-03-23T20:21:42.546Z,101217.25
2023-03-23T20:24:09.632Z,101217.03
2023-03-23T20:26:41.633Z,101223.69
2023-03-23T20:29:09.380Z,101226.09
2023-03-23T20:31:39.644Z,101229.28
2023-03-23T20:34:10.264Z,101237.53
2023-03-23T20:36:42.125Z,101233.47
2023-03-23T20:39:16.136Z,101239.69
2023-03-23T20:41:43.645Z,101241.91
2023-03-23T20:44:16.056Z,101240.72
2023-03-23T20:46:45.417Z,101249.44
2023-03-23T20:49:13.881Z,101257.56
2023-03-23T20:51:41.296Z,101258.91
2023-03-23T20:54:08.432Z,101248.31
2023-03-23T20:56:36.547Z,101257.28
2023-03-23T20:59:05.599Z,101252.31
2023-03-23T21:01:35.445Z,101256.72
2023-03-23T21:04:03.337Z,101252.63
2023-03-23T21:06:31.270Z,101253.66
2023-03-23T21:08:58.472Z,101253.88
2023-03-23T21:11:27.417Z,101262.94
2023-03-23T21:13:54.596Z,101272.59
2023-03-23T21:16:24.052Z,101265.53
2023-03-23T21:18:51.518Z,101261.41
2023-03-23T21:21:18.800Z,101271.63
2023-03-23T21:23:47.147Z,101268.66
2023-03-23T21:26:17.202Z,101276.41
2023-03-23T21:28:46.053Z,101278.66
2023-03-23T21:31:15.032Z,101280.03
2023-03-23T21:33:42.274Z,101270.44
2023-03-23T21:36:10.594Z,101278.94
2023-03-23T21:38:39.716Z,101271.69
2023-03-23T21:41:10.122Z,101273.03
2023-03-23T21:43:38.105Z,101273.28
2023-03-23T21:46:06.053Z,101275.31
2023-03-23T21:48:33.213Z,101277.22
2023-03-23T21:51:08.640Z,101277.38
2023-03-23T21:53:36.995Z,101279.44
2023-03-23T21:56:07.363Z,101276.28
2023-03-23T21:58:34.581Z,101276.09
2023-03-23T22:01:02.175Z,101272.22
2023-03-23T22:03:32.986Z,101279.47
2023-03-23T22:06:09.087Z,101283.78
2023-03-23T22:08:38.276Z,101285.84
2023-03-23T22:11:11.357Z,101278.03
2023-03-23T22:13:40.607Z,101277.34
2023-03-23T22:16:17.753Z,101274.00
2023-03-23T22:18:46.245Z,101280.06
2023-03-23T22:21:15.516Z,101281.47
2023-03-23T22:23:43.640Z,101285.06
2023-03-23T22:26:12.066Z,101287.94
2023-03-23T22:28:40.447Z,101287.41
2023-03-23T22:31:18.600Z,101284.47
2023-03-23T22:33:47.656Z,101293.34
2023-03-23T22:36:16.916Z,101288.03
2023-03-23T22:38:46.964Z,101286.28
2023-03-23T22:41:25.038Z,101290.97
2023-03-23T22:43:52.432Z,101289.25
2023-03-23T22:46:19.701Z,101289.69
2023-03-23T22:48:46.993Z,101295.66
2023-03-23T22:51:16.860Z,101289.72
2023-03-23T22:53:45.282Z,101291.38
2023-03-23T22:56:12.930Z,101283.69
2023-03-23T22:58:40.356Z,101291.72
2023-03-23T23:01:13.397Z,101283.06
2023-03-23T23:03:40.917Z,101272.97
2023-03-23T23:06:09.657Z,101278.44
2023-03-23T23:08:37.694Z,101277.16
2023-03-23T23:11:06.033Z,101278.97
2023-03-23T23:13:33.398Z,101279.59
2023-03-23T23:16:02.272Z,101284.03
2023-03-23T23:18:30.973Z,101282.75
2023-03-23T23:21:00.569Z,101277.16
2023-03-23T23:23:28.361Z,101277.66
2023-03-23T23:25:56.235Z,101281.06
2023-03-23T23:28:24.139Z,101286.97
2023-03-23T23:30:52.027Z,101285.34
2023-03-23T23:33:20.524Z,101286.41
2023-03-23T23:35:48.047Z,101291.09
2023-03-23T23:38:17.109Z,101290.16
2023-03-23T23:40:46.155Z,101281.84
2023-03-23T23:43:15.788Z,101287.28
2023-03-23T23:45:43.739Z,101285.66
2023-03-23T23:48:12.464Z,101284.03
2023-03-23T23:50:39.921Z,101292.41
2023-03-23T23:53:09.746Z,101291.25
2023-03-23T23:55:39.515Z,101298.19
2023-03-23T23:58:06.832Z,101292.56
